Main page
METAR-TAF:

METAR-TAF

Airports :

Istres, France

Istres-Le Tubé Air Base

latitude: 43-31N, longitude: 004-56E, elevation: 23 m

Current weather observation

The report was made 14 minutes ago, at 04:30 UTC
Wind 3 kt from the North/Northeast
Temperature 13°C
Humidity 82%
Pressure 1011 hPa
Visibility 10 km or more
Overcast at a height of 1800 ft

METAR: LFMI 270430Z AUTO 03003KT 9999 OVC018 13/10 Q1011 NOSIG

Time: 06:44 (04:44 UTC)

Forecast

The report was made 2 hours and 44 minutes ago, at 02:00 UTC
Forecast valid from 27 at 03 UTC to 28 at 03 UTC
Wind 2 kt from variable directions
Visibility 10 km or more
no clouds below 1500 m and no cumulonimbus
Becoming
from 27 at 09 UTC to 27 at 11 UTC
Wind 10 kt from the South/Southwest
Becoming
from 27 at 16 UTC to 27 at 18 UTC
Wind 2 kt from variable directions

TAF: LFMI 270200Z 2703/2803 VRB02KT CAVOK BECMG 2709/2711 20010KT BECMG 2716/2718 VRB02KT

Weather observations and forecasts of more than 4000 airports (METAR and TAF reports).

The available stations are represented by yellow and red dots on the map.

Hover mouse over dot to see the name of the station.

Then click to see weather observations and forecasts.

To change the map : click on the green buttons with a black cross to zoom in, on the green button with a dash to zoom out, or on the green arrows for adjacent maps.


METAR-TAF: